sensor_id;sensor_type;location;lat;lon;timestamp;temperature;humidity
46562;DHT22;32289;42.688;23.330;2023-07-31T00:00:44;21.10;99.90
46562;DHT22;32289;42.688;23.330;2023-07-31T00:04:26;21.20;99.90
46562;DHT22;32289;42.688;23.330;2023-07-31T00:08:07;21.10;99.90
46562;DHT22;32289;42.688;23.330;2023-07-31T00:11:48;21.20;99.90
46562;DHT22;32289;42.688;23.330;2023-07-31T00:15:28;21.20;99.90
46562;DHT22;32289;42.688;23.330;2023-07-31T00:19:09;21.30;99.90
46562;DHT22;32289;42.688;23.330;2023-07-31T00:22:50;21.30;99.90
46562;DHT22;32289;42.688;23.330;2023-07-31T00:26:30;21.10;99.90
46562;DHT22;32289;42.688;23.330;2023-07-31T00:30:12;21.20;99.90
46562;DHT22;32289;42.688;23.330;2023-07-31T00:33:53;21.00;99.90
46562;DHT22;32289;42.688;23.330;2023-07-31T00:37:33;21.00;99.90
46562;DHT22;32289;42.688;23.330;2023-07-31T00:41:14;21.00;99.90
46562;DHT22;32289;42.688;23.330;2023-07-31T00:44:55;21.00;99.90
46562;DHT22;32289;42.688;23.330;2023-07-31T00:48:37;20.90;99.90
46562;DHT22;32289;42.688;23.330;2023-07-31T00:52:19;21.00;99.90
46562;DHT22;32289;42.688;23.330;2023-07-31T00:56:00;21.00;99.90
46562;DHT22;32289;42.688;23.330;2023-07-31T00:59:41;20.90;99.90
46562;DHT22;32289;42.688;23.330;2023-07-31T01:03:22;20.70;99.90
46562;DHT22;32289;42.688;23.330;2023-07-31T01:07:49;20.60;99.90
46562;DHT22;32289;42.688;23.330;2023-07-31T01:11:33;20.60;99.90
46562;DHT22;32289;42.688;23.330;2023-07-31T01:15:15;20.70;99.90
46562;DHT22;32289;42.688;23.330;2023-07-31T01:18:57;20.60;99.90
46562;DHT22;32289;42.688;23.330;2023-07-31T01:27:06;20.50;99.90
46562;DHT22;32289;42.688;23.330;2023-07-31T01:30:50;20.50;99.90
46562;DHT22;32289;42.688;23.330;2023-07-31T01:34:31;20.50;99.90
46562;DHT22;32289;42.688;23.330;2023-07-31T01:38:12;20.50;99.90
46562;DHT22;32289;42.688;23.330;2023-07-31T01:41:53;20.40;99.90
46562;DHT22;32289;42.688;23.330;2023-07-31T01:45:34;20.30;99.90
46562;DHT22;32289;42.688;23.330;2023-07-31T01:49:15;20.40;99.90
46562;DHT22;32289;42.688;23.330;2023-07-31T01:52:56;20.30;99.90
46562;DHT22;32289;42.688;23.330;2023-07-31T01:56:36;20.20;99.90
46562;DHT22;32289;42.688;23.330;2023-07-31T02:00:17;20.10;99.90
46562;DHT22;32289;42.688;23.330;2023-07-31T02:03:58;20.20;99.90
46562;DHT22;32289;42.688;23.330;2023-07-31T02:07:38;20.10;99.90
46562;DHT22;32289;42.688;23.330;2023-07-31T02:11:19;20.20;99.90
46562;DHT22;32289;42.688;23.330;2023-07-31T02:15:00;20.20;99.90
46562;DHT22;32289;42.688;23.330;2023-07-31T02:18:40;20.20;99.90
46562;DHT22;32289;42.688;23.330;2023-07-31T02:22:21;20.20;99.90
46562;DHT22;32289;42.688;23.330;2023-07-31T02:26:02;20.20;99.90
46562;DHT22;32289;42.688;23.330;2023-07-31T02:29:42;20.30;99.90
46562;DHT22;32289;42.688;23.330;2023-07-31T02:33:23;20.30;99.90
46562;DHT22;32289;42.688;23.330;2023-07-31T02:37:04;20.40;99.90
46562;DHT22;32289;42.688;23.330;2023-07-31T02:40:45;20.40;99.90
46562;DHT22;32289;42.688;23.330;2023-07-31T02:44:26;20.40;99.90
46562;DHT22;32289;42.688;23.330;2023-07-31T02:48:06;20.50;99.90
46562;DHT22;32289;42.688;23.330;2023-07-31T02:51:47;20.60;99.90
46562;DHT22;32289;42.688;23.330;2023-07-31T02:55:28;20.50;99.90
46562;DHT22;32289;42.688;23.330;2023-07-31T02:59:08;20.60;99.90
46562;DHT22;32289;42.688;23.330;2023-07-31T03:02:49;20.50;99.90
46562;DHT22;32289;42.688;23.330;2023-07-31T03:06:30;20.70;99.90
46562;DHT22;32289;42.688;23.330;2023-07-31T03:10:10;20.70;99.90
46562;DHT22;32289;42.688;23.330;2023-07-31T03:13:51;20.70;99.90
46562;DHT22;32289;42.688;23.330;2023-07-31T03:17:32;20.70;99.90
46562;DHT22;32289;42.688;23.330;2023-07-31T03:21:14;20.80;99.90
46562;DHT22;32289;42.688;23.330;2023-07-31T03:24:54;20.80;99.90
46562;DHT22;32289;42.688;23.330;2023-07-31T03:28:35;20.80;99.90
46562;DHT22;32289;42.688;23.330;2023-07-31T03:32:16;20.70;99.90
46562;DHT22;32289;42.688;23.330;2023-07-31T03:35:57;20.70;99.90
46562;DHT22;32289;42.688;23.330;2023-07-31T03:39:37;20.80;99.90
46562;DHT22;32289;42.688;23.330;2023-07-31T03:43:18;20.90;99.90
46562;DHT22;32289;42.688;23.330;2023-07-31T03:46:59;20.80;99.90
46562;DHT22;32289;42.688;23.330;2023-07-31T03:50:39;20.90;99.90
46562;DHT22;32289;42.688;23.330;2023-07-31T03:54:20;20.90;99.90
46562;DHT22;32289;42.688;23.330;2023-07-31T03:58:01;21.00;99.90
46562;DHT22;32289;42.688;23.330;2023-07-31T04:01:42;21.00;99.90
46562;DHT22;32289;42.688;23.330;2023-07-31T04:05:22;21.00;99.90
46562;DHT22;32289;42.688;23.330;2023-07-31T04:09:03;21.00;99.90
46562;DHT22;32289;42.688;23.330;2023-07-31T04:12:44;21.00;99.90
46562;DHT22;32289;42.688;23.330;2023-07-31T04:16:24;21.00;99.90
46562;DHT22;32289;42.688;23.330;2023-07-31T04:20:05;21.00;99.90
46562;DHT22;32289;42.688;23.330;2023-07-31T04:23:48;21.10;99.90
46562;DHT22;32289;42.688;23.330;2023-07-31T04:27:29;21.00;99.90
46562;DHT22;32289;42.688;23.330;2023-07-31T04:31:10;20.90;99.90
46562;DHT22;32289;42.688;23.330;2023-07-31T04:34:50;20.90;99.90
46562;DHT22;32289;42.688;23.330;2023-07-31T04:38:31;20.90;99.90
46562;DHT22;32289;42.688;23.330;2023-07-31T04:42:12;21.10;99.90
46562;DHT22;32289;42.688;23.330;2023-07-31T04:45:53;21.40;99.90
46562;DHT22;32289;42.688;23.330;2023-07-31T04:49:34;21.40;99.90
46562;DHT22;32289;42.688;23.330;2023-07-31T04:53:15;21.30;99.90
46562;DHT22;32289;42.688;23.330;2023-07-31T04:56:56;21.30;99.90
46562;DHT22;32289;42.688;23.330;2023-07-31T05:00:36;21.50;99.90
46562;DHT22;32289;42.688;23.330;2023-07-31T05:04:17;21.60;99.90
46562;DHT22;32289;42.688;23.330;2023-07-31T05:07:58;22.10;99.90
46562;DHT22;32289;42.688;23.330;2023-07-31T05:11:38;22.50;99.90
46562;DHT22;32289;42.688;23.330;2023-07-31T05:15:20;22.50;99.90
46562;DHT22;32289;42.688;23.330;2023-07-31T05:19:01;23.00;99.50
46562;DHT22;32289;42.688;23.330;2023-07-31T05:22:42;23.70;97.90
46562;DHT22;32289;42.688;23.330;2023-07-31T05:26:23;24.10;95.60
46562;DHT22;32289;42.688;23.330;2023-07-31T05:30:04;25.30;91.00
46562;DHT22;32289;42.688;23.330;2023-07-31T05:33:45;26.00;87.30
46562;DHT22;32289;42.688;23.330;2023-07-31T05:37:26;24.50;91.50
46562;DHT22;32289;42.688;23.330;2023-07-31T05:41:06;24.90;90.40
46562;DHT22;32289;42.688;23.330;2023-07-31T05:44:47;25.70;86.00
46562;DHT22;32289;42.688;23.330;2023-07-31T05:48:28;25.50;84.50
46562;DHT22;32289;42.688;23.330;2023-07-31T05:52:08;24.50;89.70
46562;DHT22;32289;42.688;23.330;2023-07-31T05:55:49;23.30;93.90
46562;DHT22;32289;42.688;23.330;2023-07-31T05:59:30;22.80;95.60
46562;DHT22;32289;42.688;23.330;2023-07-31T06:03:13;22.70;96.00
46562;DHT22;32289;42.688;23.330;2023-07-31T06:06:54;22.40;95.00
46562;DHT22;32289;42.688;23.330;2023-07-31T06:10:34;22.60;96.10
46562;DHT22;32289;42.688;23.330;2023-07-31T06:14:15;23.90;93.20
46562;DHT22;32289;42.688;23.330;2023-07-31T06:17:56;24.20;89.00
46562;DHT22;32289;42.688;23.330;2023-07-31T06:21:37;25.20;81.40
46562;DHT22;32289;42.688;23.330;2023-07-31T06:25:17;25.50;78.40
46562;DHT22;32289;42.688;23.330;2023-07-31T06:28:58;26.10;76.60
46562;DHT22;32289;42.688;23.330;2023-07-31T06:32:39;25.60;74.50
46562;DHT22;32289;42.688;23.330;2023-07-31T06:36:21;24.70;81.40
46562;DHT22;32289;42.688;23.330;2023-07-31T06:40:02;24.30;82.20
46562;DHT22;32289;42.688;23.330;2023-07-31T06:43:45;25.00;78.00
46562;DHT22;32289;42.688;23.330;2023-07-31T06:47:26;25.40;79.20
46562;DHT22;32289;42.688;23.330;2023-07-31T06:51:07;26.00;75.90
46562;DHT22;32289;42.688;23.330;2023-07-31T06:55:04;26.00;76.40
46562;DHT22;32289;42.688;23.330;2023-07-31T06:58:57;24.00;80.20
46562;DHT22;32289;42.688;23.330;2023-07-31T07:02:37;24.70;76.80
46562;DHT22;32289;42.688;23.330;2023-07-31T07:06:18;25.90;76.50
46562;DHT22;32289;42.688;23.330;2023-07-31T07:09:59;25.30;72.70
46562;DHT22;32289;42.688;23.330;2023-07-31T07:13:40;26.50;71.90
46562;DHT22;32289;42.688;23.330;2023-07-31T07:17:20;26.90;71.40
46562;DHT22;32289;42.688;23.330;2023-07-31T07:21:01;26.90;69.30
46562;DHT22;32289;42.688;23.330;2023-07-31T07:24:42;27.30;67.40
46562;DHT22;32289;42.688;23.330;2023-07-31T07:28:23;26.60;68.20
46562;DHT22;32289;42.688;23.330;2023-07-31T07:32:04;26.50;68.30
46562;DHT22;32289;42.688;23.330;2023-07-31T07:35:45;26.40;68.30
46562;DHT22;32289;42.688;23.330;2023-07-31T07:39:26;27.20;66.60
46562;DHT22;32289;42.688;23.330;2023-07-31T07:43:07;27.70;66.20
46562;DHT22;32289;42.688;23.330;2023-07-31T07:46:48;27.30;66.60
46562;DHT22;32289;42.688;23.330;2023-07-31T07:50:29;28.30;65.50
46562;DHT22;32289;42.688;23.330;2023-07-31T07:54:09;28.40;62.40
46562;DHT22;32289;42.688;23.330;2023-07-31T07:57:50;27.30;62.30
46562;DHT22;32289;42.688;23.330;2023-07-31T08:01:31;29.30;58.30
46562;DHT22;32289;42.688;23.330;2023-07-31T08:05:11;28.20;59.10
46562;DHT22;32289;42.688;23.330;2023-07-31T08:08:52;29.00;59.10
46562;DHT22;32289;42.688;23.330;2023-07-31T08:12:33;27.30;63.00
46562;DHT22;32289;42.688;23.330;2023-07-31T08:16:13;26.50;65.70
46562;DHT22;32289;42.688;23.330;2023-07-31T08:19:54;28.30;59.80
46562;DHT22;32289;42.688;23.330;2023-07-31T08:23:35;29.60;57.80
46562;DHT22;32289;42.688;23.330;2023-07-31T08:27:15;29.70;55.60
46562;DHT22;32289;42.688;23.330;2023-07-31T08:30:56;27.60;61.50
46562;DHT22;32289;42.688;23.330;2023-07-31T08:34:37;28.30;58.80
46562;DHT22;32289;42.688;23.330;2023-07-31T08:38:17;28.60;58.40
46562;DHT22;32289;42.688;23.330;2023-07-31T08:41:59;30.50;56.10
46562;DHT22;32289;42.688;23.330;2023-07-31T08:45:41;30.30;55.10
46562;DHT22;32289;42.688;23.330;2023-07-31T08:49:23;31.00;54.10
46562;DHT22;32289;42.688;23.330;2023-07-31T08:53:04;27.90;58.00
46562;DHT22;32289;42.688;23.330;2023-07-31T08:56:46;30.20;55.70
46562;DHT22;32289;42.688;23.330;2023-07-31T09:00:27;31.70;52.30
46562;DHT22;32289;42.688;23.330;2023-07-31T09:04:09;32.20;49.50
46562;DHT22;32289;42.688;23.330;2023-07-31T09:07:51;32.20;50.20
46562;DHT22;32289;42.688;23.330;2023-07-31T09:11:32;29.30;54.70
46562;DHT22;32289;42.688;23.330;2023-07-31T09:15:13;29.90;53.60
46562;DHT22;32289;42.688;23.330;2023-07-31T09:18:55;31.40;50.30
46562;DHT22;32289;42.688;23.330;2023-07-31T09:22:37;31.60;51.20
46562;DHT22;32289;42.688;23.330;2023-07-31T09:30:11;30.90;51.40
46562;DHT22;32289;42.688;23.330;2023-07-31T09:33:55;32.00;50.00
46562;DHT22;32289;42.688;23.330;2023-07-31T09:37:36;31.70;49.20
46562;DHT22;32289;42.688;23.330;2023-07-31T09:41:17;31.40;50.10
46562;DHT22;32289;42.688;23.330;2023-07-31T09:45:08;32.90;49.00
46562;DHT22;32289;42.688;23.330;2023-07-31T09:48:50;29.80;52.60
46562;DHT22;32289;42.688;23.330;2023-07-31T09:52:31;30.40;52.10
46562;DHT22;32289;42.688;23.330;2023-07-31T09:56:11;32.10;49.70
46562;DHT22;32289;42.688;23.330;2023-07-31T09:59:52;31.80;49.50
46562;DHT22;32289;42.688;23.330;2023-07-31T10:03:34;30.40;51.50
46562;DHT22;32289;42.688;23.330;2023-07-31T10:07:17;30.60;50.90
46562;DHT22;32289;42.688;23.330;2023-07-31T10:10:59;31.70;49.00
46562;DHT22;32289;42.688;23.330;2023-07-31T10:14:41;31.30;49.90
46562;DHT22;32289;42.688;23.330;2023-07-31T10:18:22;29.60;53.40
46562;DHT22;32289;42.688;23.330;2023-07-31T10:22:04;30.50;51.70
46562;DHT22;32289;42.688;23.330;2023-07-31T10:25:46;31.30;50.40
46562;DHT22;32289;42.688;23.330;2023-07-31T10:29:28;29.40;53.00
46562;DHT22;32289;42.688;23.330;2023-07-31T10:33:10;28.50;53.90
46562;DHT22;32289;42.688;23.330;2023-07-31T10:37:24;30.80;51.00
46562;DHT22;32289;42.688;23.330;2023-07-31T10:41:11;31.80;48.10
46562;DHT22;32289;42.688;23.330;2023-07-31T10:44:58;32.90;46.70
46562;DHT22;32289;42.688;23.330;2023-07-31T10:48:41;31.50;48.40
46562;DHT22;32289;42.688;23.330;2023-07-31T10:52:22;32.00;47.60
46562;DHT22;32289;42.688;23.330;2023-07-31T10:56:10;31.40;47.80
46562;DHT22;32289;42.688;23.330;2023-07-31T11:04:10;31.30;49.90
46562;DHT22;32289;42.688;23.330;2023-07-31T11:07:51;30.30;49.80
46562;DHT22;32289;42.688;23.330;2023-07-31T11:11:33;29.30;53.60
46562;DHT22;32289;42.688;23.330;2023-07-31T11:15:14;30.70;49.50
46562;DHT22;32289;42.688;23.330;2023-07-31T11:18:55;30.40;48.90
46562;DHT22;32289;42.688;23.330;2023-07-31T11:22:36;29.70;50.50
46562;DHT22;32289;42.688;23.330;2023-07-31T11:26:18;29.70;50.60
46562;DHT22;32289;42.688;23.330;2023-07-31T11:30:02;31.50;48.50
46562;DHT22;32289;42.688;23.330;2023-07-31T11:33:43;31.40;47.10
46562;DHT22;32289;42.688;23.330;2023-07-31T11:37:24;30.30;49.80
46562;DHT22;32289;42.688;23.330;2023-07-31T11:41:05;31.70;47.70
46562;DHT22;32289;42.688;23.330;2023-07-31T11:44:45;30.30;49.10
46562;DHT22;32289;42.688;23.330;2023-07-31T11:48:29;29.10;51.10
46562;DHT22;32289;42.688;23.330;2023-07-31T11:52:11;28.50;52.90
46562;DHT22;32289;42.688;23.330;2023-07-31T11:55:52;29.30;51.30
46562;DHT22;32289;42.688;23.330;2023-07-31T11:59:33;29.50;50.60
46562;DHT22;32289;42.688;23.330;2023-07-31T12:03:14;30.00;50.30
46562;DHT22;32289;42.688;23.330;2023-07-31T12:06:55;30.70;50.20
46562;DHT22;32289;42.688;23.330;2023-07-31T12:10:36;30.00;50.10
46562;DHT22;32289;42.688;23.330;2023-07-31T12:14:24;29.70;50.70
46562;DHT22;32289;42.688;23.330;2023-07-31T12:18:12;30.10;50.50
46562;DHT22;32289;42.688;23.330;2023-07-31T12:21:55;29.80;50.90
46562;DHT22;32289;42.688;23.330;2023-07-31T12:25:36;29.00;52.40
46562;DHT22;32289;42.688;23.330;2023-07-31T12:29:16;29.20;51.80
46562;DHT22;32289;42.688;23.330;2023-07-31T12:32:57;28.80;51.90
46562;DHT22;32289;42.688;23.330;2023-07-31T12:36:43;29.40;52.10
46562;DHT22;32289;42.688;23.330;2023-07-31T12:40:24;29.60;50.80
46562;DHT22;32289;42.688;23.330;2023-07-31T12:44:04;29.90;50.60
46562;DHT22;32289;42.688;23.330;2023-07-31T12:47:45;29.20;51.10
46562;DHT22;32289;42.688;23.330;2023-07-31T12:51:26;28.80;51.20
46562;DHT22;32289;42.688;23.330;2023-07-31T12:55:07;28.60;51.80
46562;DHT22;32289;42.688;23.330;2023-07-31T12:58:47;28.80;52.40
46562;DHT22;32289;42.688;23.330;2023-07-31T13:02:28;29.20;51.00
46562;DHT22;32289;42.688;23.330;2023-07-31T13:06:09;29.40;51.00
46562;DHT22;32289;42.688;23.330;2023-07-31T13:09:50;29.80;51.60
46562;DHT22;32289;42.688;23.330;2023-07-31T13:13:31;29.70;51.10
46562;DHT22;32289;42.688;23.330;2023-07-31T13:17:11;28.70;51.90
46562;DHT22;32289;42.688;23.330;2023-07-31T13:20:52;28.10;52.80
46562;DHT22;32289;42.688;23.330;2023-07-31T13:24:33;27.80;53.40
46562;DHT22;32289;42.688;23.330;2023-07-31T13:28:13;27.90;53.10
46562;DHT22;32289;42.688;23.330;2023-07-31T13:31:54;28.00;52.60
46562;DHT22;32289;42.688;23.330;2023-07-31T13:35:35;28.40;51.30
46562;DHT22;32289;42.688;23.330;2023-07-31T13:39:16;29.20;50.00
46562;DHT22;32289;42.688;23.330;2023-07-31T13:42:56;28.90;51.10
46562;DHT22;32289;42.688;23.330;2023-07-31T13:46:37;28.90;51.10
46562;DHT22;32289;42.688;23.330;2023-07-31T13:50:18;28.50;51.30
46562;DHT22;32289;42.688;23.330;2023-07-31T13:54:01;28.40;51.60
46562;DHT22;32289;42.688;23.330;2023-07-31T13:57:42;28.20;51.50
46562;DHT22;32289;42.688;23.330;2023-07-31T14:01:23;28.90;50.90
46562;DHT22;32289;42.688;23.330;2023-07-31T14:05:04;28.80;50.10
46562;DHT22;32289;42.688;23.330;2023-07-31T14:08:45;28.30;52.00
46562;DHT22;32289;42.688;23.330;2023-07-31T14:12:26;28.40;51.70
46562;DHT22;32289;42.688;23.330;2023-07-31T14:16:06;28.30;51.50
46562;DHT22;32289;42.688;23.330;2023-07-31T14:19:47;28.30;52.00
46562;DHT22;32289;42.688;23.330;2023-07-31T14:23:28;28.50;51.80
46562;DHT22;32289;42.688;23.330;2023-07-31T14:27:09;28.10;53.20
46562;DHT22;32289;42.688;23.330;2023-07-31T14:30:49;28.00;54.20
46562;DHT22;32289;42.688;23.330;2023-07-31T14:34:30;28.20;53.70
46562;DHT22;32289;42.688;23.330;2023-07-31T14:38:11;28.10;54.50
46562;DHT22;32289;42.688;23.330;2023-07-31T14:41:51;28.10;54.60
46562;DHT22;32289;42.688;23.330;2023-07-31T14:45:32;27.80;55.80
46562;DHT22;32289;42.688;23.330;2023-07-31T14:49:13;27.60;56.50
46562;DHT22;32289;42.688;23.330;2023-07-31T14:52:54;27.80;56.50
46562;DHT22;32289;42.688;23.330;2023-07-31T14:56:35;28.00;56.30
46562;DHT22;32289;42.688;23.330;2023-07-31T15:00:16;28.40;55.90
46562;DHT22;32289;42.688;23.330;2023-07-31T15:03:56;28.40;55.60
46562;DHT22;32289;42.688;23.330;2023-07-31T15:07:37;28.20;55.40
46562;DHT22;32289;42.688;23.330;2023-07-31T15:11:18;28.40;55.20
46562;DHT22;32289;42.688;23.330;2023-07-31T15:14:58;28.30;55.50
46562;DHT22;32289;42.688;23.330;2023-07-31T15:18:39;27.90;56.10
46562;DHT22;32289;42.688;23.330;2023-07-31T15:22:20;27.90;56.70
46562;DHT22;32289;42.688;23.330;2023-07-31T15:26:00;28.20;57.10
46562;DHT22;32289;42.688;23.330;2023-07-31T15:29:42;28.20;56.60
46562;DHT22;32289;42.688;23.330;2023-07-31T15:33:22;28.10;56.80
46562;DHT22;32289;42.688;23.330;2023-07-31T15:37:03;27.90;57.10
46562;DHT22;32289;42.688;23.330;2023-07-31T15:40:44;27.40;56.90
46562;DHT22;32289;42.688;23.330;2023-07-31T15:44:25;27.20;58.00
46562;DHT22;32289;42.688;23.330;2023-07-31T15:48:05;27.30;57.60
46562;DHT22;32289;42.688;23.330;2023-07-31T15:51:46;27.20;57.60
46562;DHT22;32289;42.688;23.330;2023-07-31T15:55:27;27.30;57.10
46562;DHT22;32289;42.688;23.330;2023-07-31T15:59:07;27.00;57.60
46562;DHT22;32289;42.688;23.330;2023-07-31T16:02:49;27.00;58.40
46562;DHT22;32289;42.688;23.330;2023-07-31T16:06:30;27.10;58.60
46562;DHT22;32289;42.688;23.330;2023-07-31T16:10:11;26.90;58.10
46562;DHT22;32289;42.688;23.330;2023-07-31T16:13:52;27.20;57.80
46562;DHT22;32289;42.688;23.330;2023-07-31T16:17:32;26.90;57.80
46562;DHT22;32289;42.688;23.330;2023-07-31T16:21:13;27.00;56.90
46562;DHT22;32289;42.688;23.330;2023-07-31T16:24:54;26.90;57.60
46562;DHT22;32289;42.688;23.330;2023-07-31T16:28:34;26.70;57.50
46562;DHT22;32289;42.688;23.330;2023-07-31T16:32:15;26.40;57.40
46562;DHT22;32289;42.688;23.330;2023-07-31T16:35:58;26.50;57.60
46562;DHT22;32289;42.688;23.330;2023-07-31T16:39:39;26.30;57.60
46562;DHT22;32289;42.688;23.330;2023-07-31T16:43:21;26.40;57.20
46562;DHT22;32289;42.688;23.330;2023-07-31T16:47:02;26.40;57.30
46562;DHT22;32289;42.688;23.330;2023-07-31T16:50:43;26.40;56.30
46562;DHT22;32289;42.688;23.330;2023-07-31T16:54:23;26.30;56.80
46562;DHT22;32289;42.688;23.330;2023-07-31T16:58:04;26.30;55.80
46562;DHT22;32289;42.688;23.330;2023-07-31T17:01:45;26.20;55.70
46562;DHT22;32289;42.688;23.330;2023-07-31T17:05:27;26.10;55.90
46562;DHT22;32289;42.688;23.330;2023-07-31T17:09:08;26.10;56.20
46562;DHT22;32289;42.688;23.330;2023-07-31T17:12:49;26.00;56.60
46562;DHT22;32289;42.688;23.330;2023-07-31T17:16:30;26.00;56.80
46562;DHT22;32289;42.688;23.330;2023-07-31T17:20:13;25.80;57.10
46562;DHT22;32289;42.688;23.330;2023-07-31T17:23:55;25.80;57.80
46562;DHT22;32289;42.688;23.330;2023-07-31T17:27:36;25.60;58.40
46562;DHT22;32289;42.688;23.330;2023-07-31T17:31:16;25.60;58.90
46562;DHT22;32289;42.688;23.330;2023-07-31T17:39:06;25.40;59.40
46562;DHT22;32289;42.688;23.330;2023-07-31T17:42:47;25.30;60.20
46562;DHT22;32289;42.688;23.330;2023-07-31T17:46:28;25.20;60.80
46562;DHT22;32289;42.688;23.330;2023-07-31T17:50:10;25.00;62.50
46562;DHT22;32289;42.688;23.330;2023-07-31T17:53:50;25.00;63.00
46562;DHT22;32289;42.688;23.330;2023-07-31T17:57:31;25.10;63.20
46562;DHT22;32289;42.688;23.330;2023-07-31T18:01:12;24.90;64.10
46562;DHT22;32289;42.688;23.330;2023-07-31T18:04:52;24.80;65.10
46562;DHT22;32289;42.688;23.330;2023-07-31T18:08:33;24.80;64.70
46562;DHT22;32289;42.688;23.330;2023-07-31T18:12:14;24.60;65.60
46562;DHT22;32289;42.688;23.330;2023-07-31T18:15:55;24.40;66.10
46562;DHT22;32289;42.688;23.330;2023-07-31T18:19:35;24.40;66.70
46562;DHT22;32289;42.688;23.330;2023-07-31T18:23:16;24.30;66.60
46562;DHT22;32289;42.688;23.330;2023-07-31T18:26:57;24.40;67.00
46562;DHT22;32289;42.688;23.330;2023-07-31T18:30:38;24.20;67.40
46562;DHT22;32289;42.688;23.330;2023-07-31T18:34:18;24.20;68.30
46562;DHT22;32289;42.688;23.330;2023-07-31T18:37:59;24.40;67.80
46562;DHT22;32289;42.688;23.330;2023-07-31T18:41:40;24.60;64.30
46562;DHT22;32289;42.688;23.330;2023-07-31T18:45:20;24.40;63.30
46562;DHT22;32289;42.688;23.330;2023-07-31T18:49:01;24.20;63.90
46562;DHT22;32289;42.688;23.330;2023-07-31T18:52:42;24.40;64.30
46562;DHT22;32289;42.688;23.330;2023-07-31T18:56:22;24.30;65.00
46562;DHT22;32289;42.688;23.330;2023-07-31T19:00:03;24.20;65.70
46562;DHT22;32289;42.688;23.330;2023-07-31T19:03:46;24.10;65.40
46562;DHT22;32289;42.688;23.330;2023-07-31T19:07:29;24.00;65.80
46562;DHT22;32289;42.688;23.330;2023-07-31T19:11:10;24.00;66.40
46562;DHT22;32289;42.688;23.330;2023-07-31T19:14:53;24.10;66.40
46562;DHT22;32289;42.688;23.330;2023-07-31T19:18:34;23.90;66.10
46562;DHT22;32289;42.688;23.330;2023-07-31T19:22:15;23.70;67.00
46562;DHT22;32289;42.688;23.330;2023-07-31T19:25:56;23.80;67.40
46562;DHT22;32289;42.688;23.330;2023-07-31T19:29:36;23.60;67.60
46562;DHT22;32289;42.688;23.330;2023-07-31T19:33:17;23.60;68.00
46562;DHT22;32289;42.688;23.330;2023-07-31T19:36:58;23.70;68.00
46562;DHT22;32289;42.688;23.330;2023-07-31T19:40:39;23.70;68.50
46562;DHT22;32289;42.688;23.330;2023-07-31T19:44:19;23.60;68.80
46562;DHT22;32289;42.688;23.330;2023-07-31T19:48:00;23.40;70.30
46562;DHT22;32289;42.688;23.330;2023-07-31T19:51:41;23.60;70.90
46562;DHT22;32289;42.688;23.330;2023-07-31T19:55:22;23.50;72.10
46562;DHT22;32289;42.688;23.330;2023-07-31T19:59:02;23.40;71.40
46562;DHT22;32289;42.688;23.330;2023-07-31T20:02:44;23.40;71.70
46562;DHT22;32289;42.688;23.330;2023-07-31T20:06:27;23.30;72.90
46562;DHT22;32289;42.688;23.330;2023-07-31T20:10:08;23.30;73.00
46562;DHT22;32289;42.688;23.330;2023-07-31T20:13:49;23.10;73.20
46562;DHT22;32289;42.688;23.330;2023-07-31T20:17:29;23.00;73.30
46562;DHT22;32289;42.688;23.330;2023-07-31T20:21:11;23.20;73.60
46562;DHT22;32289;42.688;23.330;2023-07-31T20:24:52;23.10;73.60
46562;DHT22;32289;42.688;23.330;2023-07-31T20:28:32;23.10;74.30
46562;DHT22;32289;42.688;23.330;2023-07-31T20:32:13;23.10;74.70
46562;DHT22;32289;42.688;23.330;2023-07-31T20:35:54;23.00;74.60
46562;DHT22;32289;42.688;23.330;2023-07-31T20:39:34;22.90;75.40
46562;DHT22;32289;42.688;23.330;2023-07-31T20:43:15;22.90;75.50
46562;DHT22;32289;42.688;23.330;2023-07-31T20:46:58;22.80;76.30
46562;DHT22;32289;42.688;23.330;2023-07-31T20:50:39;22.70;76.30
46562;DHT22;32289;42.688;23.330;2023-07-31T20:54:19;22.60;77.40
46562;DHT22;32289;42.688;23.330;2023-07-31T20:58:00;22.60;77.40
46562;DHT22;32289;42.688;23.330;2023-07-31T21:01:42;22.40;78.30
46562;DHT22;32289;42.688;23.330;2023-07-31T21:05:25;22.40;78.90
46562;DHT22;32289;42.688;23.330;2023-07-31T21:09:06;22.30;79.30
46562;DHT22;32289;42.688;23.330;2023-07-31T21:12:47;22.30;80.00
46562;DHT22;32289;42.688;23.330;2023-07-31T21:16:27;22.30;80.30
46562;DHT22;32289;42.688;23.330;2023-07-31T21:20:11;22.20;81.10
46562;DHT22;32289;42.688;23.330;2023-07-31T21:23:52;22.20;81.80
46562;DHT22;32289;42.688;23.330;2023-07-31T21:27:33;22.20;82.30
46562;DHT22;32289;42.688;23.330;2023-07-31T21:31:14;22.10;82.70
46562;DHT22;32289;42.688;23.330;2023-07-31T21:34:57;21.90;84.30
46562;DHT22;32289;42.688;23.330;2023-07-31T21:38:38;21.90;84.60
46562;DHT22;32289;42.688;23.330;2023-07-31T21:42:19;21.90;85.00
46562;DHT22;32289;42.688;23.330;2023-07-31T21:46:00;22.00;85.70
46562;DHT22;32289;42.688;23.330;2023-07-31T21:49:40;22.10;86.20
46562;DHT22;32289;42.688;23.330;2023-07-31T21:53:21;21.90;86.20
46562;DHT22;32289;42.688;23.330;2023-07-31T21:57:02;21.90;86.60
46562;DHT22;32289;42.688;23.330;2023-07-31T22:00:43;21.80;87.30
46562;DHT22;32289;42.688;23.330;2023-07-31T22:04:24;21.80;87.40
46562;DHT22;32289;42.688;23.330;2023-07-31T22:08:04;21.70;88.30
46562;DHT22;32289;42.688;23.330;2023-07-31T22:11:45;21.80;88.20
46562;DHT22;32289;42.688;23.330;2023-07-31T22:15:26;21.80;88.60
46562;DHT22;32289;42.688;23.330;2023-07-31T22:19:07;21.70;88.80
46562;DHT22;32289;42.688;23.330;2023-07-31T22:22:48;21.80;88.50
46562;DHT22;32289;42.688;23.330;2023-07-31T22:26:28;21.70;89.30
46562;DHT22;32289;42.688;23.330;2023-07-31T22:30:09;21.60;89.60
46562;DHT22;32289;42.688;23.330;2023-07-31T22:33:50;21.50;89.60
46562;DHT22;32289;42.688;23.330;2023-07-31T22:37:31;21.40;90.10
46562;DHT22;32289;42.688;23.330;2023-07-31T22:41:12;21.40;90.40
46562;DHT22;32289;42.688;23.330;2023-07-31T22:44:52;21.40;90.10
46562;DHT22;32289;42.688;23.330;2023-07-31T22:48:33;21.50;90.10
46562;DHT22;32289;42.688;23.330;2023-07-31T22:52:14;21.40;90.20
46562;DHT22;32289;42.688;23.330;2023-07-31T22:55:54;21.30;90.40
46562;DHT22;32289;42.688;23.330;2023-07-31T22:59:35;21.20;90.60
46562;DHT22;32289;42.688;23.330;2023-07-31T23:03:16;21.30;90.70
46562;DHT22;32289;42.688;23.330;2023-07-31T23:06:56;21.30;90.50
46562;DHT22;32289;42.688;23.330;2023-07-31T23:10:37;21.20;91.00